Portada
METAR-TAF:

METAR-TAF

Aeropuertos :

Aeropuerto de Lübeck

Lubeca, Alemania

latitud: 53-49N, longitud: 010-42E, altitud: 14 m

Observación

El informe se hizo hace 5 horas y 35 minutos, a las 18:50 UTC
Viento 4 kt del este
Temperatura 0°C
Humedad 93%
Presión 982 hPa
Visibilidad 10 km o más
sin nubes por debajo de 1500 m y sin presencia de cumulonimbus.

METAR: EDHL 131850Z 10004KT CAVOK 00/M01 Q0982

Hora: 01:25 (00:25 UTC)

Pronóstico

El informe se hizo hace 7 horas y 25 minutos, a las 17:00 UTC
Pronóstico válido del 13 a las 18 UTC al 13 a las 21 UTC
Viento 6 kt del este-sureste
Visibilidad 10 km o más
Escasas nubes a una altura de 1200 ft
Temporalmente
del 13 a las 18 UTC al 13 a las 21 UTC
Cielo nuboso a una altura de 1200 ft

TAF: EDHL 131700Z 1318/1321 12006KT 9999 FEW012 TEMPO 1318/1321 BKN012

Observaciones y pronósticos meteorológicos de más de 4000 aeropuertos (mensajes METAR y TAF).

Los puntos amarillos y rojos representan las estaciones disponibles.

Ponga el ratón en el punto deseado para ver el nombre de la estación.

Haga clic para ver las observaciones y los pronósticos meteorológicos.

Para cambiar el mapa : haga clic en los botones verdes con una cruz de color negro para hacer un zoom, en el botón verde con un guión para alejar o en las flechas verdes para mapas adyacentes.


METAR-TAF: